sensor_id;sensor_type;location;lat;lon;timestamp;pressure;altitude;pressure_sealevel;temperature;humidity
37972;BME280;23794;48.234;8.344;2023-07-13T00:00:09;94414.56;;;16.16;65.69
37972;BME280;23794;48.234;8.344;2023-07-13T00:02:40;94414.22;;;16.14;65.84
37972;BME280;23794;48.234;8.344;2023-07-13T00:05:07;94411.91;;;16.12;64.45
37972;BME280;23794;48.234;8.344;2023-07-13T00:07:34;94412.06;;;16.05;66.36
37972;BME280;23794;48.234;8.344;2023-07-13T00:10:02;94423.03;;;16.08;66.03
37972;BME280;23794;48.234;8.344;2023-07-13T00:12:32;94422.50;;;16.14;65.00
37972;BME280;23794;48.234;8.344;2023-07-13T00:15:03;94415.94;;;16.07;64.83
37972;BME280;23794;48.234;8.344;2023-07-13T00:17:30;94413.84;;;16.11;65.42
37972;BME280;23794;48.234;8.344;2023-07-13T00:19:57;94415.34;;;16.16;65.47
37972;BME280;23794;48.234;8.344;2023-07-13T00:22:25;94426.06;;;16.14;65.53
37972;BME280;23794;48.234;8.344;2023-07-13T00:24:54;94419.16;;;16.06;66.86
37972;BME280;23794;48.234;8.344;2023-07-13T00:27:24;94411.81;;;15.99;68.43
37972;BME280;23794;48.234;8.344;2023-07-13T00:29:53;94420.94;;;15.96;67.56
37972;BME280;23794;48.234;8.344;2023-07-13T00:32:19;94403.44;;;16.03;66.94
37972;BME280;23794;48.234;8.344;2023-07-13T00:34:46;94395.75;;;16.10;66.19
37972;BME280;23794;48.234;8.344;2023-07-13T00:37:14;94392.81;;;16.01;65.93
37972;BME280;23794;48.234;8.344;2023-07-13T00:39:41;94387.88;;;15.92;66.13
37972;BME280;23794;48.234;8.344;2023-07-13T00:42:09;94395.91;;;15.87;66.39
37972;BME280;23794;48.234;8.344;2023-07-13T00:44:35;94390.38;;;15.87;66.54
37972;BME280;23794;48.234;8.344;2023-07-13T00:47:02;94397.19;;;15.82;66.44
37972;BME280;23794;48.234;8.344;2023-07-13T00:49:30;94403.38;;;15.86;66.76
37972;BME280;23794;48.234;8.344;2023-07-13T00:52:08;94403.38;;;15.86;66.66
37972;BME280;23794;48.234;8.344;2023-07-13T00:54:42;94406.50;;;15.88;66.43
37972;BME280;23794;48.234;8.344;2023-07-13T00:57:17;94399.72;;;15.93;65.67
37972;BME280;23794;48.234;8.344;2023-07-13T00:59:52;94394.47;;;15.99;65.02
37972;BME280;23794;48.234;8.344;2023-07-13T01:02:20;94396.88;;;15.97;65.47
37972;BME280;23794;48.234;8.344;2023-07-13T01:04:48;94398.50;;;15.94;66.42
37972;BME280;23794;48.234;8.344;2023-07-13T01:07:15;94395.91;;;15.87;66.40
37972;BME280;23794;48.234;8.344;2023-07-13T01:09:42;94401.81;;;15.85;66.19
37972;BME280;23794;48.234;8.344;2023-07-13T01:12:08;94413.41;;;15.80;66.39
37972;BME280;23794;48.234;8.344;2023-07-13T01:14:35;94415.03;;;15.77;65.97
37972;BME280;23794;48.234;8.344;2023-07-13T01:17:03;94410.44;;;15.71;65.91
37972;BME280;23794;48.234;8.344;2023-07-13T01:22:11;94403.84;;;15.48;67.22
37972;BME280;23794;48.234;8.344;2023-07-13T01:24:40;94402.28;;;15.47;66.73
37972;BME280;23794;48.234;8.344;2023-07-13T01:27:09;94402.22;;;15.51;65.91
37972;BME280;23794;48.234;8.344;2023-07-13T01:29:40;94399.97;;;15.45;65.75
37972;BME280;23794;48.234;8.344;2023-07-13T01:32:10;94397.38;;;15.38;66.96
37972;BME280;23794;48.234;8.344;2023-07-13T01:34:37;94397.97;;;15.29;67.16
37972;BME280;23794;48.234;8.344;2023-07-13T01:37:04;94397.53;;;15.31;67.00
37972;BME280;23794;48.234;8.344;2023-07-13T01:39:33;94395.59;;;15.28;66.73
37972;BME280;23794;48.234;8.344;2023-07-13T01:42:00;94394.06;;;15.27;67.16
37972;BME280;23794;48.234;8.344;2023-07-13T01:44:29;94394.16;;;15.23;66.16
37972;BME280;23794;48.234;8.344;2023-07-13T01:46:56;94394.72;;;15.14;67.34
37972;BME280;23794;48.234;8.344;2023-07-13T01:49:23;94392.88;;;15.08;68.28
37972;BME280;23794;48.234;8.344;2023-07-13T01:51:49;94397.84;;;14.96;68.28
37972;BME280;23794;48.234;8.344;2023-07-13T01:54:18;94407.25;;;14.99;67.79
37972;BME280;23794;48.234;8.344;2023-07-13T01:56:45;94406.53;;;14.95;68.28
37972;BME280;23794;48.234;8.344;2023-07-13T01:59:11;94409.50;;;14.84;68.38
37972;BME280;23794;48.234;8.344;2023-07-13T02:01:38;94407.13;;;14.86;67.37
37972;BME280;23794;48.234;8.344;2023-07-13T02:04:05;94403.84;;;14.91;67.26
37972;BME280;23794;48.234;8.344;2023-07-13T02:06:32;94403.00;;;14.94;66.37
37972;BME280;23794;48.234;8.344;2023-07-13T02:08:59;94399.09;;;14.92;66.76
37972;BME280;23794;48.234;8.344;2023-07-13T02:11:25;94396.50;;;14.84;67.03
37972;BME280;23794;48.234;8.344;2023-07-13T02:14:00;94391.88;;;14.78;66.68
37972;BME280;23794;48.234;8.344;2023-07-13T02:16:29;94393.84;;;14.77;67.06
37972;BME280;23794;48.234;8.344;2023-07-13T02:18:56;94393.69;;;14.64;67.89
37972;BME280;23794;48.234;8.344;2023-07-13T02:21:23;94393.97;;;14.70;65.93
37972;BME280;23794;48.234;8.344;2023-07-13T02:23:51;94395.13;;;14.73;65.97
37972;BME280;23794;48.234;8.344;2023-07-13T02:26:19;94391.28;;;14.66;65.68
37972;BME280;23794;48.234;8.344;2023-07-13T02:28:46;94391.00;;;14.61;67.79
37972;BME280;23794;48.234;8.344;2023-07-13T02:31:15;94389.41;;;14.63;66.86
37972;BME280;23794;48.234;8.344;2023-07-13T02:33:42;94392.94;;;14.64;67.12
37972;BME280;23794;48.234;8.344;2023-07-13T02:36:11;94391.44;;;14.59;66.89
37972;BME280;23794;48.234;8.344;2023-07-13T02:38:38;94397.44;;;14.54;68.85
37972;BME280;23794;48.234;8.344;2023-07-13T02:41:07;94405.78;;;14.50;68.69
37972;BME280;23794;48.234;8.344;2023-07-13T02:43:35;94396.09;;;14.42;69.04
37972;BME280;23794;48.234;8.344;2023-07-13T02:46:02;94405.19;;;14.39;68.53
37972;BME280;23794;48.234;8.344;2023-07-13T02:48:36;94403.75;;;14.31;68.30
37972;BME280;23794;48.234;8.344;2023-07-13T02:51:03;94404.47;;;14.35;67.43
37972;BME280;23794;48.234;8.344;2023-07-13T02:53:30;94407.53;;;14.17;67.97
37972;BME280;23794;48.234;8.344;2023-07-13T02:55:56;94410.88;;;14.04;68.62
37972;BME280;23794;48.234;8.344;2023-07-13T02:58:23;94410.03;;;14.08;68.94
37972;BME280;23794;48.234;8.344;2023-07-13T03:00:51;94403.75;;;14.07;68.70
37972;BME280;23794;48.234;8.344;2023-07-13T03:03:18;94401.41;;;14.05;68.07
37972;BME280;23794;48.234;8.344;2023-07-13T03:05:46;94399.09;;;14.04;70.20
37972;BME280;23794;48.234;8.344;2023-07-13T03:08:20;94400.94;;;14.11;70.32
37972;BME280;23794;48.234;8.344;2023-07-13T03:10:58;94405.66;;;14.10;70.17
37972;BME280;23794;48.234;8.344;2023-07-13T03:13:26;94402.91;;;14.10;69.79
37972;BME280;23794;48.234;8.344;2023-07-13T03:15:53;94402.25;;;14.26;68.84
37972;BME280;23794;48.234;8.344;2023-07-13T03:18:19;94398.41;;;14.20;68.71
37972;BME280;23794;48.234;8.344;2023-07-13T03:20:50;94400.84;;;14.18;69.50
37972;BME280;23794;48.234;8.344;2023-07-13T03:23:17;94393.72;;;14.20;70.01
37972;BME280;23794;48.234;8.344;2023-07-13T03:25:45;94399.97;;;14.21;69.66
37972;BME280;23794;48.234;8.344;2023-07-13T03:28:12;94405.06;;;14.23;69.99
37972;BME280;23794;48.234;8.344;2023-07-13T03:30:40;94410.94;;;14.25;68.93
37972;BME280;23794;48.234;8.344;2023-07-13T03:33:07;94409.94;;;14.15;69.51
37972;BME280;23794;48.234;8.344;2023-07-13T03:35:35;94411.31;;;14.03;69.71
37972;BME280;23794;48.234;8.344;2023-07-13T03:38:02;94410.00;;;14.11;69.57
37972;BME280;23794;48.234;8.344;2023-07-13T03:40:28;94420.56;;;14.13;70.33
37972;BME280;23794;48.234;8.344;2023-07-13T03:42:55;94423.03;;;14.07;71.41
37972;BME280;23794;48.234;8.344;2023-07-13T03:45:22;94419.00;;;14.12;70.61
37972;BME280;23794;48.234;8.344;2023-07-13T03:47:48;94423.16;;;14.24;69.07
37972;BME280;23794;48.234;8.344;2023-07-13T03:50:16;94420.22;;;14.34;68.28
37972;BME280;23794;48.234;8.344;2023-07-13T03:52:42;94423.41;;;14.33;69.19
37972;BME280;23794;48.234;8.344;2023-07-13T03:55:09;94425.44;;;14.29;69.55
37972;BME280;23794;48.234;8.344;2023-07-13T03:57:37;94425.50;;;14.25;70.37
37972;BME280;23794;48.234;8.344;2023-07-13T04:00:07;94425.66;;;14.38;69.37
37972;BME280;23794;48.234;8.344;2023-07-13T04:02:41;94428.19;;;14.29;69.79
37972;BME280;23794;48.234;8.344;2023-07-13T04:05:08;94426.16;;;14.33;69.19
37972;BME280;23794;48.234;8.344;2023-07-13T04:07:34;94425.13;;;14.23;69.08
37972;BME280;23794;48.234;8.344;2023-07-13T04:10:01;94426.75;;;14.20;68.85
37972;BME280;23794;48.234;8.344;2023-07-13T04:12:29;94421.59;;;14.23;69.18
37972;BME280;23794;48.234;8.344;2023-07-13T04:14:56;94423.16;;;14.24;68.93
37972;BME280;23794;48.234;8.344;2023-07-13T04:17:23;94421.91;;;14.28;68.18
37972;BME280;23794;48.234;8.344;2023-07-13T04:19:50;94427.84;;;14.27;68.76
37972;BME280;23794;48.234;8.344;2023-07-13T04:22:16;94421.13;;;14.28;69.76
37972;BME280;23794;48.234;8.344;2023-07-13T04:24:43;94430.22;;;14.25;70.58
37972;BME280;23794;48.234;8.344;2023-07-13T04:27:10;94435.31;;;14.26;70.86
37972;BME280;23794;48.234;8.344;2023-07-13T04:29:36;94443.38;;;14.37;69.73
37972;BME280;23794;48.234;8.344;2023-07-13T04:32:03;94441.25;;;14.48;69.74
37972;BME280;23794;48.234;8.344;2023-07-13T04:34:30;94432.47;;;14.53;70.10
37972;BME280;23794;48.234;8.344;2023-07-13T04:36:57;94442.97;;;14.62;69.78
37972;BME280;23794;48.234;8.344;2023-07-13T04:39:24;94441.84;;;14.80;69.49
37972;BME280;23794;48.234;8.344;2023-07-13T04:41:50;94447.03;;;14.98;69.19
37972;BME280;23794;48.234;8.344;2023-07-13T04:44:17;94442.53;;;15.08;68.13
37972;BME280;23794;48.234;8.344;2023-07-13T04:46:44;94456.66;;;15.10;68.24
37972;BME280;23794;48.234;8.344;2023-07-13T04:49:11;94459.88;;;15.28;67.58
37972;BME280;23794;48.234;8.344;2023-07-13T04:51:37;94461.06;;;15.27;67.75
37972;BME280;23794;48.234;8.344;2023-07-13T04:54:04;94457.75;;;15.16;67.42
37972;BME280;23794;48.234;8.344;2023-07-13T04:56:31;94465.97;;;15.20;66.81
37972;BME280;23794;48.234;8.344;2023-07-13T04:58:58;94463.91;;;15.24;66.66
37972;BME280;23794;48.234;8.344;2023-07-13T05:01:25;94458.97;;;15.15;66.84
37972;BME280;23794;48.234;8.344;2023-07-13T05:03:51;94461.06;;;15.07;67.76
37972;BME280;23794;48.234;8.344;2023-07-13T05:06:18;94467.50;;;15.00;68.54
37972;BME280;23794;48.234;8.344;2023-07-13T05:08:44;94472.09;;;15.07;68.85
37972;BME280;23794;48.234;8.344;2023-07-13T05:11:11;94470.63;;;15.23;68.35
37972;BME280;23794;48.234;8.344;2023-07-13T05:13:38;94473.16;;;15.34;67.86
37972;BME280;23794;48.234;8.344;2023-07-13T05:16:06;94476.88;;;15.43;67.20
37972;BME280;23794;48.234;8.344;2023-07-13T05:18:35;94470.75;;;15.56;66.19
37972;BME280;23794;48.234;8.344;2023-07-13T05:21:05;94480.50;;;15.60;66.48
37972;BME280;23794;48.234;8.344;2023-07-13T05:23:34;94476.47;;;15.65;67.14
37972;BME280;23794;48.234;8.344;2023-07-13T05:26:02;94478.56;;;15.77;66.87
37972;BME280;23794;48.234;8.344;2023-07-13T05:28:31;94490.44;;;15.94;67.17
37972;BME280;23794;48.234;8.344;2023-07-13T05:30:58;94478.53;;;16.31;66.64
37972;BME280;23794;48.234;8.344;2023-07-13T05:33:25;94481.66;;;16.49;65.72
37972;BME280;23794;48.234;8.344;2023-07-13T05:35:52;94488.75;;;16.67;65.17
37972;BME280;23794;48.234;8.344;2023-07-13T05:38:19;94485.69;;;16.78;63.91
37972;BME280;23794;48.234;8.344;2023-07-13T05:40:46;94491.13;;;16.81;64.08
37972;BME280;23794;48.234;8.344;2023-07-13T05:43:13;94492.25;;;17.00;63.49
37972;BME280;23794;48.234;8.344;2023-07-13T05:45:41;94487.47;;;17.01;63.28
37972;BME280;23794;48.234;8.344;2023-07-13T05:48:07;94497.59;;;17.08;62.67
37972;BME280;23794;48.234;8.344;2023-07-13T05:50:34;94482.72;;;17.01;62.54
37972;BME280;23794;48.234;8.344;2023-07-13T05:53:01;94497.25;;;16.89;62.07
37972;BME280;23794;48.234;8.344;2023-07-13T05:55:28;94489.75;;;16.89;62.59
37972;BME280;23794;48.234;8.344;2023-07-13T05:57:54;94499.41;;;16.98;63.42
37972;BME280;23794;48.234;8.344;2023-07-13T06:00:21;94498.63;;;17.14;63.20
37972;BME280;23794;48.234;8.344;2023-07-13T06:02:48;94497.88;;;17.26;63.02
37972;BME280;23794;48.234;8.344;2023-07-13T06:05:14;94499.97;;;17.22;63.15
37972;BME280;23794;48.234;8.344;2023-07-13T06:07:41;94499.47;;;17.11;63.99
37972;BME280;23794;48.234;8.344;2023-07-13T06:10:09;94508.16;;;16.96;63.82
37972;BME280;23794;48.234;8.344;2023-07-13T06:12:35;94505.28;;;17.00;64.45
37972;BME280;23794;48.234;8.344;2023-07-13T06:15:07;94507.97;;;17.03;63.91
37972;BME280;23794;48.234;8.344;2023-07-13T06:17:37;94509.44;;;17.08;64.03
37972;BME280;23794;48.234;8.344;2023-07-13T06:20:04;94507.69;;;17.14;64.04
37972;BME280;23794;48.234;8.344;2023-07-13T06:22:31;94502.94;;;17.15;62.21
37972;BME280;23794;48.234;8.344;2023-07-13T06:25:02;94505.06;;;17.24;60.34
37972;BME280;23794;48.234;8.344;2023-07-13T06:27:29;94505.22;;;17.33;59.72
37972;BME280;23794;48.234;8.344;2023-07-13T06:29:56;94503.00;;;17.41;60.75
37972;BME280;23794;48.234;8.344;2023-07-13T06:32:23;94499.06;;;17.55;61.03
37972;BME280;23794;48.234;8.344;2023-07-13T06:34:50;94497.53;;;17.66;59.37
37972;BME280;23794;48.234;8.344;2023-07-13T06:37:18;94505.31;;;17.84;57.46
37972;BME280;23794;48.234;8.344;2023-07-13T06:39:45;94499.50;;;17.95;56.51
37972;BME280;23794;48.234;8.344;2023-07-13T06:42:11;94510.03;;;18.00;56.17
37972;BME280;23794;48.234;8.344;2023-07-13T06:44:40;94510.25;;;18.06;55.88
37972;BME280;23794;48.234;8.344;2023-07-13T06:47:07;94507.59;;;18.15;55.89
37972;BME280;23794;48.234;8.344;2023-07-13T06:49:33;94518.69;;;18.28;55.90
37972;BME280;23794;48.234;8.344;2023-07-13T06:52:00;94522.13;;;18.45;54.14
37972;BME280;23794;48.234;8.344;2023-07-13T06:54:27;94503.47;;;18.59;56.58
37972;BME280;23794;48.234;8.344;2023-07-13T06:56:54;94502.22;;;18.73;51.96
37972;BME280;23794;48.234;8.344;2023-07-13T06:59:20;94498.28;;;18.83;52.67
37972;BME280;23794;48.234;8.344;2023-07-13T07:01:47;94505.72;;;18.99;51.19
37972;BME280;23794;48.234;8.344;2023-07-13T07:04:14;94504.38;;;19.04;49.96
37972;BME280;23794;48.234;8.344;2023-07-13T07:06:40;94504.06;;;19.02;50.63
37972;BME280;23794;48.234;8.344;2023-07-13T07:09:07;94502.91;;;19.12;48.26
37972;BME280;23794;48.234;8.344;2023-07-13T07:11:35;94507.88;;;19.17;47.64
37972;BME280;23794;48.234;8.344;2023-07-13T07:14:02;94512.44;;;19.24;46.80
37972;BME280;23794;48.234;8.344;2023-07-13T07:16:28;94507.19;;;19.26;47.53
37972;BME280;23794;48.234;8.344;2023-07-13T07:18:55;94512.19;;;19.31;47.93
37972;BME280;23794;48.234;8.344;2023-07-13T07:21:22;94507.34;;;19.45;47.37
37972;BME280;23794;48.234;8.344;2023-07-13T07:23:51;94509.13;;;19.61;48.08
37972;BME280;23794;48.234;8.344;2023-07-13T07:26:18;94509.84;;;19.74;48.64
37972;BME280;23794;48.234;8.344;2023-07-13T07:28:45;94511.59;;;19.81;44.05
37972;BME280;23794;48.234;8.344;2023-07-13T07:31:31;94512.56;;;19.87;45.19
37972;BME280;23794;48.234;8.344;2023-07-13T07:34:01;94510.94;;;19.99;45.61
37972;BME280;23794;48.234;8.344;2023-07-13T07:36:27;94510.03;;;20.11;45.29
37972;BME280;23794;48.234;8.344;2023-07-13T07:38:57;94512.41;;;19.90;42.76
37972;BME280;23794;48.234;8.344;2023-07-13T07:41:24;94513.16;;;20.13;45.90
37972;BME280;23794;48.234;8.344;2023-07-13T07:43:53;94515.59;;;20.43;43.42
37972;BME280;23794;48.234;8.344;2023-07-13T07:46:20;94518.84;;;20.50;44.47
37972;BME280;23794;48.234;8.344;2023-07-13T07:48:46;94516.47;;;20.62;44.88
37972;BME280;23794;48.234;8.344;2023-07-13T07:51:13;94521.50;;;20.54;44.18
37972;BME280;23794;48.234;8.344;2023-07-13T07:53:40;94520.19;;;20.68;44.62
37972;BME280;23794;48.234;8.344;2023-07-13T07:56:06;94527.44;;;20.34;44.84
37972;BME280;23794;48.234;8.344;2023-07-13T07:58:53;94533.69;;;19.84;44.85
37972;BME280;23794;48.234;8.344;2023-07-13T08:01:23;94523.53;;;19.68;45.91
37972;BME280;23794;48.234;8.344;2023-07-13T08:03:52;94526.66;;;19.93;45.41
37972;BME280;23794;48.234;8.344;2023-07-13T08:06:22;94529.56;;;19.89;43.53
37972;BME280;23794;48.234;8.344;2023-07-13T08:08:52;94531.56;;;19.88;44.58
37972;BME280;23794;48.234;8.344;2023-07-13T08:11:20;94537.38;;;19.81;45.44
37972;BME280;23794;48.234;8.344;2023-07-13T08:13:50;94529.16;;;20.00;44.40
37972;BME280;23794;48.234;8.344;2023-07-13T08:16:21;94531.63;;;20.29;44.28
37972;BME280;23794;48.234;8.344;2023-07-13T08:18:48;94528.28;;;20.44;44.05
37972;BME280;23794;48.234;8.344;2023-07-13T08:21:15;94525.56;;;20.62;42.66
37972;BME280;23794;48.234;8.344;2023-07-13T08:23:42;94521.09;;;20.65;42.64
37972;BME280;23794;48.234;8.344;2023-07-13T08:26:09;94534.56;;;20.66;43.00
37972;BME280;23794;48.234;8.344;2023-07-13T08:28:36;94534.28;;;20.74;41.55
37972;BME280;23794;48.234;8.344;2023-07-13T08:31:06;94522.94;;;20.59;42.99
37972;BME280;23794;48.234;8.344;2023-07-13T08:33:36;94516.19;;;20.37;43.45
37972;BME280;23794;48.234;8.344;2023-07-13T08:36:03;94521.72;;;20.60;43.89
37972;BME280;23794;48.234;8.344;2023-07-13T08:38:31;94508.47;;;20.92;43.04
37972;BME280;23794;48.234;8.344;2023-07-13T08:40:57;94515.63;;;21.11;42.21
37972;BME280;23794;48.234;8.344;2023-07-13T08:43:35;94514.84;;;21.29;40.96
37972;BME280;23794;48.234;8.344;2023-07-13T08:46:13;94512.41;;;21.41;40.96
37972;BME280;23794;48.234;8.344;2023-07-13T08:49:06;94526.44;;;21.19;42.55
37972;BME280;23794;48.234;8.344;2023-07-13T08:54:21;94521.34;;;21.17;41.87
37972;BME280;23794;48.234;8.344;2023-07-13T08:56:50;94518.25;;;21.24;42.72
37972;BME280;23794;48.234;8.344;2023-07-13T08:59:23;94521.38;;;21.54;41.19
37972;BME280;23794;48.234;8.344;2023-07-13T09:02:05;94519.81;;;21.35;40.52
37972;BME280;23794;48.234;8.344;2023-07-13T09:05:04;94520.13;;;21.46;39.94
37972;BME280;23794;48.234;8.344;2023-07-13T09:10:32;94511.56;;;21.96;40.47
37972;BME280;23794;48.234;8.344;2023-07-13T09:13:51;94512.34;;;21.87;39.32
37972;BME280;23794;48.234;8.344;2023-07-13T09:15:59;94511.50;;;22.15;40.20
37972;BME280;23794;48.234;8.344;2023-07-13T09:18:38;94517.22;;;22.30;41.12
37972;BME280;23794;48.234;8.344;2023-07-13T09:21:17;94511.97;;;22.56;40.23
37972;BME280;23794;48.234;8.344;2023-07-13T09:23:44;94512.81;;;22.47;38.82
37972;BME280;23794;48.234;8.344;2023-07-13T09:26:18;94515.81;;;22.68;39.70
37972;BME280;23794;48.234;8.344;2023-07-13T09:28:47;94518.38;;;22.81;39.17
37972;BME280;23794;48.234;8.344;2023-07-13T09:31:26;94518.09;;;23.03;39.96
37972;BME280;23794;48.234;8.344;2023-07-13T09:33:55;94513.81;;;22.93;39.60
37972;BME280;23794;48.234;8.344;2023-07-13T09:36:31;94524.75;;;22.72;39.93
37972;BME280;23794;48.234;8.344;2023-07-13T09:39:14;94519.75;;;22.52;39.98
37972;BME280;23794;48.234;8.344;2023-07-13T09:42:13;94524.41;;;22.46;39.86
37972;BME280;23794;48.234;8.344;2023-07-13T09:44:58;94534.22;;;22.41;40.34
37972;BME280;23794;48.234;8.344;2023-07-13T09:47:30;94523.50;;;22.49;39.18
37972;BME280;23794;48.234;8.344;2023-07-13T09:50:02;94517.19;;;22.39;38.00
37972;BME280;23794;48.234;8.344;2023-07-13T09:52:41;94518.06;;;22.45;37.79
37972;BME280;23794;48.234;8.344;2023-07-13T09:58:03;94515.25;;;22.54;37.39
37972;BME280;23794;48.234;8.344;2023-07-13T10:00:32;94523.25;;;22.71;38.14
37972;BME280;23794;48.234;8.344;2023-07-13T10:03:14;94520.97;;;22.94;36.80
37972;BME280;23794;48.234;8.344;2023-07-13T10:05:45;94519.81;;;23.00;37.62
37972;BME280;23794;48.234;8.344;2023-07-13T10:08:25;94526.47;;;23.03;38.11
37972;BME280;23794;48.234;8.344;2023-07-13T10:10:59;94529.94;;;22.98;37.85
37972;BME280;23794;48.234;8.344;2023-07-13T10:15:58;94522.03;;;22.96;38.28
37972;BME280;23794;48.234;8.344;2023-07-13T10:18:26;94530.34;;;23.05;38.22
37972;BME280;23794;48.234;8.344;2023-07-13T10:21:08;94526.53;;;23.18;38.41
37972;BME280;23794;48.234;8.344;2023-07-13T10:24:03;94521.59;;;23.52;35.87
37972;BME280;23794;48.234;8.344;2023-07-13T10:26:33;94512.44;;;23.91;35.42
37972;BME280;23794;48.234;8.344;2023-07-13T10:29:04;94521.59;;;23.76;36.53
37972;BME280;23794;48.234;8.344;2023-07-13T10:31:34;94519.19;;;23.84;35.44
37972;BME280;23794;48.234;8.344;2023-07-13T10:34:03;94519.19;;;23.84;34.56
37972;BME280;23794;48.234;8.344;2023-07-13T10:36:40;94521.38;;;24.25;34.83
37972;BME280;23794;48.234;8.344;2023-07-13T10:39:15;94521.97;;;24.59;34.33
37972;BME280;23794;48.234;8.344;2023-07-13T10:41:50;94512.13;;;24.84;35.15
37972;BME280;23794;48.234;8.344;2023-07-13T10:44:25;94514.50;;;25.27;32.07
37972;BME280;23794;48.234;8.344;2023-07-13T10:47:00;94516.31;;;25.09;31.75
37972;BME280;23794;48.234;8.344;2023-07-13T10:49:29;94514.00;;;25.29;31.97
37972;BME280;23794;48.234;8.344;2023-07-13T10:51:57;94517.44;;;25.38;34.21
37972;BME280;23794;48.234;8.344;2023-07-13T10:57:19;94518.03;;;24.86;34.16
37972;BME280;23794;48.234;8.344;2023-07-13T11:00:19;94513.72;;;24.91;32.68
37972;BME280;23794;48.234;8.344;2023-07-13T11:02:56;94518.34;;;25.30;32.96
37972;BME280;23794;48.234;8.344;2023-07-13T11:05:30;94520.91;;;25.54;33.00
37972;BME280;23794;48.234;8.344;2023-07-13T11:10:57;94514.56;;;25.33;32.59
37972;BME280;23794;48.234;8.344;2023-07-13T11:13:36;94517.13;;;25.36;33.98
37972;BME280;23794;48.234;8.344;2023-07-13T11:16:21;94515.53;;;25.50;32.18
37972;BME280;23794;48.234;8.344;2023-07-13T11:21:29;94509.16;;;25.29;31.37
37972;BME280;23794;48.234;8.344;2023-07-13T11:24:12;94510.34;;;25.43;31.31
37972;BME280;23794;48.234;8.344;2023-07-13T11:31:42;94485.34;;;25.66;30.61
37972;BME280;23794;48.234;8.344;2023-07-13T11:34:14;94479.56;;;26.28;31.24
37972;BME280;23794;48.234;8.344;2023-07-13T11:36:45;94500.16;;;26.51;29.57
37972;BME280;23794;48.234;8.344;2023-07-13T11:39:32;94500.94;;;26.19;30.05
37972;BME280;23794;48.234;8.344;2023-07-13T11:42:02;94495.81;;;26.50;30.72
37972;BME280;23794;48.234;8.344;2023-07-13T11:44:32;94494.34;;;26.98;29.05
37972;BME280;23794;48.234;8.344;2023-07-13T11:47:07;94491.97;;;26.85;29.08
37972;BME280;23794;48.234;8.344;2023-07-13T11:49:44;94493.47;;;26.11;30.21
37972;BME280;23794;48.234;8.344;2023-07-13T11:52:16;94497.16;;;26.23;29.54
37972;BME280;23794;48.234;8.344;2023-07-13T11:54:49;94500.94;;;26.19;30.09
37972;BME280;23794;48.234;8.344;2023-07-13T11:57:25;94496.31;;;26.48;31.09
37972;BME280;23794;48.234;8.344;2023-07-13T11:59:55;94493.56;;;26.97;30.54
37972;BME280;23794;48.234;8.344;2023-07-13T12:02:31;94491.00;;;26.94;28.51
37972;BME280;23794;48.234;8.344;2023-07-13T12:05:00;94481.09;;;27.04;27.83
37972;BME280;23794;48.234;8.344;2023-07-13T12:07:31;94482.84;;;26.96;28.85
37972;BME280;23794;48.234;8.344;2023-07-13T12:10:19;94481.47;;;27.35;30.21
37972;BME280;23794;48.234;8.344;2023-07-13T12:15:30;94492.44;;;26.78;27.61
37972;BME280;23794;48.234;8.344;2023-07-13T12:18:00;94493.44;;;26.75;27.75
37972;BME280;23794;48.234;8.344;2023-07-13T12:20:37;94490.34;;;26.73;28.27
37972;BME280;23794;48.234;8.344;2023-07-13T12:23:25;94501.75;;;27.01;28.35
37972;BME280;23794;48.234;8.344;2023-07-13T12:25:52;94499.47;;;26.56;27.65
37972;BME280;23794;48.234;8.344;2023-07-13T12:28:34;94503.56;;;26.61;29.29
37972;BME280;23794;48.234;8.344;2023-07-13T12:31:07;94486.28;;;27.23;29.00
37972;BME280;23794;48.234;8.344;2023-07-13T12:33:39;94492.25;;;27.42;27.66
37972;BME280;23794;48.234;8.344;2023-07-13T12:36:10;94485.78;;;27.19;28.89
37972;BME280;23794;48.234;8.344;2023-07-13T12:38:40;94502.09;;;26.71;28.63
37972;BME280;23794;48.234;8.344;2023-07-13T12:41:10;94503.91;;;25.84;30.25
37972;BME280;23794;48.234;8.344;2023-07-13T12:43:37;94501.44;;;25.45;29.99
37972;BME280;23794;48.234;8.344;2023-07-13T12:46:16;94490.66;;;26.11;29.01
37972;BME280;23794;48.234;8.344;2023-07-13T12:48:44;94491.78;;;26.57;29.36
37972;BME280;23794;48.234;8.344;2023-07-13T12:51:27;94491.72;;;27.32;28.03
37972;BME280;23794;48.234;8.344;2023-07-13T12:54:07;94487.09;;;27.35;26.98
37972;BME280;23794;48.234;8.344;2023-07-13T12:56:38;94487.66;;;27.39;27.84
37972;BME280;23794;48.234;8.344;2023-07-13T12:59:05;94475.75;;;27.84;27.44
37972;BME280;23794;48.234;8.344;2023-07-13T13:01:34;94479.75;;;27.49;27.61
37972;BME280;23794;48.234;8.344;2023-07-13T13:04:04;94494.78;;;26.47;29.57
37972;BME280;23794;48.234;8.344;2023-07-13T13:06:33;94498.94;;;27.01;29.68
37972;BME280;23794;48.234;8.344;2023-07-13T13:09:03;94500.94;;;26.89;28.33
37972;BME280;23794;48.234;8.344;2023-07-13T13:11:31;94499.47;;;26.99;28.07
37972;BME280;23794;48.234;8.344;2023-07-13T13:14:01;94490.38;;;27.22;28.66
37972;BME280;23794;48.234;8.344;2023-07-13T13:16:32;94499.16;;;26.92;28.71
37972;BME280;23794;48.234;8.344;2023-07-13T13:19:15;94492.34;;;26.34;29.39
37972;BME280;23794;48.234;8.344;2023-07-13T13:21:44;94505.25;;;25.88;31.05
37972;BME280;23794;48.234;8.344;2023-07-13T13:24:16;94509.31;;;25.20;31.89
37972;BME280;23794;48.234;8.344;2023-07-13T13:26:44;94490.66;;;26.11;30.53
37972;BME280;23794;48.234;8.344;2023-07-13T13:29:21;94485.44;;;26.62;28.84
37972;BME280;23794;48.234;8.344;2023-07-13T13:31:52;94480.75;;;27.40;29.37
37972;BME280;23794;48.234;8.344;2023-07-13T13:34:20;94471.94;;;27.92;27.65
37972;BME280;23794;48.234;8.344;2023-07-13T13:36:50;94490.47;;;27.44;27.59
37972;BME280;23794;48.234;8.344;2023-07-13T13:41:49;94496.84;;;25.68;29.64
37972;BME280;23794;48.234;8.344;2023-07-13T13:44:17;94506.72;;;25.37;30.04
37972;BME280;23794;48.234;8.344;2023-07-13T13:46:52;94494.22;;;25.58;31.69